• Join FlightAware (Why Join?)
  • Login
  • US Flag 
08:35PM EDT


 

Airport Tracker/Info


-or-


 

Live Flight TrackerFlight Track Log ✈ DAL6057 ✈ 23-Apr-2013 ✈ KCMH - KDTW

Flight Track Log - Related Links

Times and Time Zones

All times are in EDT time to prevent confusion due to time zone crossing. See the DAL6057 flight status page for this flight to view local times or setup timezone preferences in your user account.

Time Position Orientation Groundspeed Altitude Reporting Facility
EDT Latitude Longitude Course Direction KTS MPH feet Rate Location/Type
06:37AM 40.0008 -82.8747 25° Northeast 179 206 1,400  Level Indianapolis Center
06:38AM 40.0025 -82.8475 85° East 167 192 2,200 1,980 Climbing Indianapolis Center
06:38AM 40.0042 -82.7881 88° East 200 230 3,900 2,340 Climbing Indianapolis Center
06:39AM 40.0142 -82.7031 81° East 237 273 6,300 2,280 Climbing Indianapolis Center
06:40AM 40.2348 -82.7037 29° Northeast  Level FlightAware Approximate
06:40AM 40.0806 -82.6714 20° North 259 298 8,600  Level Indianapolis Center
06:41AM 40.3210 -82.6422 29° Northeast  Level FlightAware Approximate
06:41AM 40.1533 -82.6419 17° North 272 313 10,900  Level Indianapolis Center
06:42AM 40.4098 -82.5875 25° Northeast  Level FlightAware Approximate
06:42AM 40.2306 -82.6111 17° North 286 329 13,200  Level Indianapolis Center
06:43AM 40.3011 -82.5831 17° North 296 341 14,800 840 Climbing Indianapolis Center
06:44AM 40.3906 -82.5472 17° North 331 381 15,000 60 Climbing Indianapolis Center
06:45AM 40.4872 -82.5100 16° North 353 406 15,000  Level Indianapolis Center
06:46AM 40.5853 -82.4725 16° North 361 415 15,000  Level Indianapolis Center
06:47AM 40.6817 -82.4339 17° North 352 405 15,000  Level Cleveland Center
06:48AM 40.7739 -82.3953 18° North 344 396 15,000  Level Cleveland Center
06:49AM 40.8656 -82.4117 352° North 328 377 15,000  Level Cleveland Center
06:50AM 40.9500 -82.4717 332° Northwest 322 371 15,000  Level Cleveland Center
06:51AM 41.0425 -82.5433 330° Northwest 337 388 15,000  Level Cleveland Center
06:52AM 41.1269 -82.6064 331° Northwest 352 405 15,000  Level Cleveland Center
06:53AM 41.2111 -82.6725 329° Northwest 353 406 15,000  Level Cleveland Center
06:54AM 41.2956 -82.7389 329° Northwest 353 406 15,000  Level Cleveland Center
06:55AM 41.3817 -82.8053 330° Northwest 358 412 15,000 -240 Level Cleveland Center
06:56AM 41.4639 -82.8664 331° Northwest 353 406 14,600 -960 Descending Cleveland Center
06:57AM 41.5419 -82.9303 329° Northwest 342 394 13,200 -1,260 Descending Cleveland Center
06:58AM 41.6158 -82.9856 331° Northwest 342 394 12,100 -600 Descending Cleveland Center
06:59AM 41.7019 -83.0556 329° Northwest 325 374 12,000 -60 Descending Cleveland Center
07:00AM 41.7839 -83.1172 331° Northwest 331 381 12,000  Level Cleveland Center
07:01AM 41.8128 -83.1381 332° Northwest 345 397 12,000 -240 Level Cleveland Center
07:01AM 41.8658 -83.1792 330° Northwest 331 381 11,800 -600 Descending Cleveland Center
07:02AM 41.9397 -83.2350 331° Northwest 331 381 11,000 -660 Descending Cleveland Center
07:03AM 41.9767 -83.2647 329° Northwest 339 390 11,000  Level Cleveland Center
07:03AM 42.0217 -83.2972 332° Northwest 331 381 11,000  Level Cleveland Center
07:04AM 42.1117 -83.3656 331° Northwest 331 381 11,000  Level Cleveland Center
07:05AM 42.1444 -83.3919 329° Northwest 316 364 11,000  Level Cleveland Center
07:05AM 42.1853 -83.4219 331° Northwest 315 362 11,000 -300 Level Cleveland Center
07:06AM 42.2467 -83.4722 329° Northwest 277 319 10,600 -1,020 Descending Cleveland Center
07:08AM 42.3239 -83.4703 North 258 297 8,900 -1,440 Descending Cleveland Center
07:09AM 42.3897 -83.4228 28° Northeast 252 290 7,500 -1,440 Descending Cleveland Center
07:10AM 42.4411 -83.3658 39° Northeast 245 282 6,000 -1,440 Descending Cleveland Center
07:11AM 42.4181 -83.2806 110° East 199 229 4,600 -1,380 Descending Cleveland Center
07:12AM 42.3681 -83.2783 178° South 184 212 3,300 -1,320 Descending Cleveland Center